Palo Alto, CA

1:06 AM PDT on October 31, 2014 (GMT -0700)
Old Palo Alto (Waverley St) | Change Station
CLOSE
Current Station
Personal Weather Station
Location: Palo Alto, CA
Elevation: 27 ft
Nearby Weather Stations

Elev 27 ft 37.44 °N, 122.14 °W | Updated 5 seconds ago

Partly Cloudy
Partly Cloudy
60.2 °F
Feels Like 60.2 °F
N
0.7
Wind Variable Wind from SE
Gusts 1.5 mph

Today
High -- | Low -- °F
--% Chance of Precip.
Yesterday
High -- | Low -- °F
Precip. -- in
7:32 AM 6:11 PM
First Quarter, 52% visible
Pressure 29.94 in
Visibility 10.0 miles
Clouds Overcast 2900 ft
Dew Point 55 °F
Humidity 82%
Rainfall 0.00 in
Snow Depth Not available.
UV 0 out of 12
Pollen 2.20 out of 12
Air Quality Not available.
Flu Activity Not available.
METAR KNUQ 310756Z AUTO 19003KT 10SM OVC029 17/15 A2993 RMK AO2 SLP137 T01670150 402610133 TSNO

More Conditions Fewer Conditions

Pressure 29.94 in
Visibility 10.0 miles
Clouds Overcast 2900 ft
Dew Point 55 °F
Humidity 82%
Rainfall 0.00 in
Snow Depth Not available.
UV 0 out of 12
Pollen 2.20 out of 12
Air Quality Not available.
Flu Activity Not available.
METAR KNUQ 310756Z AUTO 19003KT 10SM OVC029 17/15 A2993 RMK AO2 SLP137 T01670150 402610133 TSNO

More Conditions Fewer Conditions

10-Day Weather Forecast

Almanac

Astronomy

Oct. 31, 2014 Rise Set
Actual Time
Civil Twilight
Nautical Twilight
Astronomical Twilight
Moon
Length of Visible Light
Length of Day
Tomorrow will be .
, % of the Moon is Illuminated

Today's Extremes

State Highs State Lows

Community

WunderPhotos

Upload Photos

1,766,573 photos uploaded!

WunderBlogs® & News

Nearby

Air Quality

  Air Quality AQ Index Pollutant
Not available.

Snow Depth

Station Depth Elevation

Earthquake Activity

City Distance Mag. Time & Date
Minimum magnitude displayed is 2.5.

Coastal Water Temperatures

Place Temperature

Nearby Weather Stations